Time;durP1;ratioP1;P1;durP2;ratioP2;P2;SDS_P1;SDS_P2;PMS_P1;PMS_P2;Temp;Humidity;BMP_temperature;BMP_pressure;BME280_temperature;BME280_humidity;BME280_pressure;Samples;Min_cycle;Max_cycle;Signal;HPM_P1;HPM_P2
2023/10/05 00:04:29;;;;;;;10.98;2.10;;;14.20;99.90;;;;;;5096396;28;20052;-65
2023/10/05 00:06:59;;;;;;;12.10;2.28;;;14.10;99.90;;;;;;5097930;28;20048;-65
2023/10/05 00:09:24;;;;;;;6.03;1.70;;;14.10;99.90;;;;;;5097359;28;20040;-66
2023/10/05 00:11:54;;;;;;;9.73;2.72;;;14.20;99.90;;;;;;5079278;28;20055;-65
2023/10/05 00:14:23;;;;;;;5.18;1.80;;;14.10;99.90;;;;;;5097796;28;20070;-65
2023/10/05 00:16:49;;;;;;;6.22;2.00;;;14.10;99.90;;;;;;5096637;28;20055;-66
2023/10/05 00:19:18;;;;;;;5.85;2.20;;;14.10;99.90;;;;;;5099874;28;20044;-66
2023/10/05 00:21:51;;;;;;;5.15;2.20;;;14.10;99.90;;;;;;5101020;28;20047;-66
2023/10/05 00:24:23;;;;;;;11.60;1.95;;;14.10;99.90;;;;;;5066994;28;20040;-66
2023/10/05 00:26:49;;;;;;;7.13;2.85;;;14.10;99.90;;;;;;5101651;28;20060;-66
2023/10/05 00:29:23;;;;;;;13.68;1.80;;;14.10;99.90;;;;;;5101160;28;20039;-66
2023/10/05 00:31:49;;;;;;;3.63;1.45;;;14.10;99.90;;;;;;5083575;28;20109;-67
2023/10/05 00:36:50;;;;;;;7.35;2.28;;;14.10;99.90;;;;;;5102098;28;20051;-65
2023/10/05 00:39:20;;;;;;;5.60;2.03;;;14.10;99.90;;;;;;5083035;28;20060;-65
2023/10/05 00:41:49;;;;;;;5.60;2.10;;;14.10;99.90;;;;;;5101436;28;20072;-65
2023/10/05 00:44:15;;;;;;;7.22;1.98;;;14.10;99.90;;;;;;5084261;28;20066;-65
2023/10/05 00:46:48;;;;;;;5.32;1.80;;;14.10;99.90;;;;;;5100017;28;20043;-65
2023/10/05 00:49:19;;;;;;;9.07;2.75;;;14.10;99.90;;;;;;5083609;28;20063;-65
2023/10/05 00:54:31;;;;;;;7.28;2.65;;;14.10;99.90;;;;;;5101127;28;20044;-66
2023/10/05 00:56:59;;;;;;;9.95;1.98;;;14.00;99.90;;;;;;5083462;28;20104;-66
2023/10/05 00:59:25;;;;;;;10.13;2.15;;;14.10;99.90;;;;;;5100525;28;20048;-65
2023/10/05 01:04:34;;;;;;;5.20;1.73;;;14.10;99.90;;;;;;5100140;28;20415;-66
2023/10/05 01:07:17;;;;;;;9.75;2.10;;;14.00;99.90;;;;;;5101649;28;20115;-65
2023/10/05 01:12:36;;;;;;;7.20;1.92;;;14.00;99.90;;;;;;5081949;28;20103;-66
2023/10/05 01:15:06;;;;;;;8.57;2.10;;;14.00;99.90;;;;;;5082727;28;20059;-65
2023/10/05 01:17:35;;;;;;;8.05;1.83;;;14.00;99.90;;;;;;5099705;28;20058;-65
2023/10/05 01:23:01;;;;;;;5.32;1.75;;;14.00;99.90;;;;;;5087480;28;20091;-65
2023/10/05 01:25:27;;;;;;;11.88;2.28;;;14.00;99.90;;;;;;5081101;28;20069;-65
2023/10/05 01:27:54;;;;;;;10.63;1.88;;;14.00;99.90;;;;;;5100706;28;20109;-67
2023/10/05 01:30:21;;;;;;;4.47;1.80;;;14.00;99.90;;;;;;5098105;28;20115;-66
2023/10/05 01:32:48;;;;;;;6.38;2.08;;;14.00;99.90;;;;;;5100557;28;20047;-65
2023/10/05 01:35:17;;;;;;;10.27;2.25;;;14.00;99.90;;;;;;5100078;28;20063;-66
2023/10/05 01:37:46;;;;;;;5.05;1.75;;;14.00;99.90;;;;;;5117153;28;20662;-67
2023/10/05 01:42:42;;;;;;;5.00;2.25;;;14.00;99.90;;;;;;5119512;28;20081;-65
2023/10/05 01:45:10;;;;;;;9.13;2.35;;;14.00;99.90;;;;;;5120243;28;20543;-66
2023/10/05 01:47:35;;;;;;;7.95;2.22;;;14.00;99.90;;;;;;5119494;28;20052;-65
2023/10/05 01:50:01;;;;;;;6.68;2.55;;;14.00;99.90;;;;;;5120458;28;20100;-65
2023/10/05 01:52:27;;;;;;;9.63;2.55;;;14.10;99.90;;;;;;5120232;28;20066;-65
2023/10/05 01:54:53;;;;;;;3.00;1.77;;;14.10;99.90;;;;;;5119512;28;20059;-67
2023/10/05 01:57:20;;;;;;;10.25;1.80;;;14.10;99.90;;;;;;5120307;28;20109;-66
2023/10/05 01:59:46;;;;;;;6.38;1.80;;;14.10;99.90;;;;;;5118620;28;20093;-66
2023/10/05 02:02:15;;;;;;;10.18;2.45;;;14.00;99.90;;;;;;5120296;28;20043;-66
2023/10/05 02:04:44;;;;;;;11.20;2.67;;;14.00;99.90;;;;;;5119307;28;20052;-66
2023/10/05 02:07:16;;;;;;;7.88;1.83;;;14.00;99.90;;;;;;5120000;28;20112;-66
2023/10/05 02:09:42;;;;;;;7.18;2.25;;;14.00;99.90;;;;;;5120171;28;20040;-65
2023/10/05 02:12:09;;;;;;;7.68;1.80;;;14.10;99.90;;;;;;5119057;28;20070;-65
2023/10/05 02:14:41;;;;;;;7.85;2.28;;;14.10;99.90;;;;;;5119610;28;20116;-66
2023/10/05 02:17:14;;;;;;;8.23;2.08;;;14.10;99.90;;;;;;5101494;28;20347;-66
2023/10/05 02:19:41;;;;;;;6.47;1.75;;;14.00;99.90;;;;;;5119957;28;20044;-65
2023/10/05 02:22:12;;;;;;;5.90;1.98;;;14.00;99.90;;;;;;5119247;28;20055;-65
2023/10/05 02:24:41;;;;;;;3.78;2.05;;;14.00;99.90;;;;;;5119496;28;20044;-66
2023/10/05 02:27:11;;;;;;;8.93;2.00;;;14.00;99.90;;;;;;5101436;28;20048;-66
2023/10/05 02:29:42;;;;;;;8.48;2.13;;;14.00;99.90;;;;;;5100054;28;20075;-66
2023/10/05 02:32:14;;;;;;;4.65;1.80;;;14.00;99.90;;;;;;5101129;28;20052;-66
2023/10/05 02:34:42;;;;;;;4.80;1.67;;;14.00;99.90;;;;;;5118813;28;20032;-65
2023/10/05 02:37:11;;;;;;;8.57;2.60;;;14.00;99.90;;;;;;5119614;28;20055;-66
2023/10/05 02:39:41;;;;;;;9.27;2.60;;;14.00;99.90;;;;;;5119348;28;20092;-65
2023/10/05 02:42:18;;;;;;;5.78;2.60;;;14.00;99.90;;;;;;5100213;28;20050;-65
2023/10/05 02:44:45;;;;;;;6.43;2.15;;;13.90;99.90;;;;;;5100692;28;20048;-66
2023/10/05 02:47:13;;;;;;;9.63;2.10;;;13.90;99.90;;;;;;5099591;28;20062;-65
2023/10/05 02:49:43;;;;;;;7.82;2.55;;;13.90;99.90;;;;;;5119373;28;20044;-67
2023/10/05 02:52:13;;;;;;;5.82;2.15;;;13.90;99.90;;;;;;5118742;28;20146;-66
2023/10/05 02:54:49;;;;;;;8.43;2.28;;;13.90;99.90;;;;;;5118535;28;20044;-66
2023/10/05 02:57:19;;;;;;;6.97;2.08;;;13.90;99.90;;;;;;5118535;28;20051;-65
2023/10/05 02:59:46;;;;;;;8.10;2.42;;;13.90;99.90;;;;;;5118069;28;20043;-65
2023/10/05 03:02:16;;;;;;;7.32;2.17;;;13.90;99.90;;;;;;5100773;28;20048;-65
2023/10/05 03:05:07;;;;;;;3.60;1.98;;;13.90;99.90;;;;;;5099773;28;20043;-65
2023/10/05 03:07:30;;;;;;;7.28;1.92;;;13.90;99.90;;;;;;5117912;28;20073;-66
2023/10/05 03:09:59;;;;;;;7.22;2.30;;;13.90;99.90;;;;;;5118923;28;20039;-66
2023/10/05 03:12:25;;;;;;;9.27;2.50;;;13.90;99.90;;;;;;5117285;28;20127;-65
2023/10/05 03:14:52;;;;;;;9.45;2.80;;;13.90;99.90;;;;;;5118536;28;20044;-65
2023/10/05 03:17:20;;;;;;;7.88;2.17;;;13.90;99.90;;;;;;5117728;28;20442;-64
2023/10/05 03:19:46;;;;;;;4.18;1.98;;;13.90;99.90;;;;;;5100396;28;20051;-65
2023/10/05 03:22:15;;;;;;;9.60;2.28;;;13.90;99.90;;;;;;5117949;28;20075;-64
2023/10/05 03:24:44;;;;;;;6.65;2.22;;;13.90;99.90;;;;;;5099913;28;20047;-64
2023/10/05 03:27:10;;;;;;;7.65;2.25;;;13.90;99.90;;;;;;5099679;28;20043;-65
2023/10/05 03:29:38;;;;;;;6.60;2.40;;;13.90;99.90;;;;;;5117376;28;20040;-65
2023/10/05 03:34:35;;;;;;;7.35;1.90;;;13.90;99.90;;;;;;5117319;28;20058;-65
2023/10/05 03:37:08;;;;;;;9.32;2.05;;;13.90;99.90;;;;;;5118697;28;20047;-64
2023/10/05 03:42:22;;;;;;;11.57;2.13;;;13.90;99.90;;;;;;5116850;28;20075;-66
2023/10/05 03:45:03;;;;;;;8.48;2.33;;;14.00;99.90;;;;;;5099941;28;20055;-65
2023/10/05 03:47:37;;;;;;;10.70;3.03;;;13.90;99.90;;;;;;5098927;28;20048;-65
2023/10/05 03:50:08;;;;;;;9.43;2.13;;;13.90;99.90;;;;;;5099897;28;20043;-65
2023/10/05 03:52:34;;;;;;;9.35;2.20;;;13.90;99.90;;;;;;5118118;28;20452;-65
2023/10/05 03:55:04;;;;;;;9.13;2.50;;;13.90;99.90;;;;;;5116336;28;20124;-65
2023/10/05 03:57:31;;;;;;;12.18;2.53;;;14.00;99.90;;;;;;5118180;28;20035;-64
2023/10/05 03:59:58;;;;;;;9.05;2.40;;;13.90;99.90;;;;;;5116976;28;20058;-64
2023/10/05 04:02:25;;;;;;;10.10;2.45;;;14.00;99.90;;;;;;5118131;28;20043;-65
2023/10/05 04:04:52;;;;;;;4.47;1.90;;;13.90;99.90;;;;;;5117332;28;20047;-64
2023/10/05 04:07:20;;;;;;;7.60;2.97;;;13.90;99.90;;;;;;5117798;28;20728;-64
2023/10/05 04:09:47;;;;;;;12.15;2.08;;;13.90;99.90;;;;;;5117700;28;20044;-64
2023/10/05 04:12:13;;;;;;;8.88;2.63;;;14.00;99.90;;;;;;5116805;28;20843;-65
2023/10/05 04:14:39;;;;;;;5.65;1.85;;;14.00;99.90;;;;;;5099946;28;20456;-64
2023/10/05 04:17:07;;;;;;;9.88;2.40;;;13.90;99.90;;;;;;5098767;28;20432;-65
2023/10/05 04:19:34;;;;;;;12.10;2.55;;;14.00;99.90;;;;;;5118161;28;20055;-65
2023/10/05 04:22:00;;;;;;;8.75;2.03;;;14.00;99.90;;;;;;5099357;28;20052;-65
2023/10/05 04:24:27;;;;;;;8.70;4.10;;;14.00;99.90;;;;;;5117433;28;20165;-64
2023/10/05 04:26:53;;;;;;;6.97;2.13;;;13.90;99.90;;;;;;5118009;28;20055;-65
2023/10/05 04:29:23;;;;;;;9.85;2.55;;;14.00;99.90;;;;;;5116899;28;20071;-66
2023/10/05 04:31:49;;;;;;;8.38;1.67;;;14.00;99.90;;;;;;5116849;28;20048;-65
2023/10/05 04:34:18;;;;;;;11.60;2.42;;;14.00;99.90;;;;;;5098593;28;20132;-66
2023/10/05 04:36:46;;;;;;;11.40;2.60;;;13.90;99.90;;;;;;5100087;28;20055;-64
2023/10/05 04:39:13;;;;;;;6.45;1.92;;;13.90;99.90;;;;;;5098457;28;20062;-65
2023/10/05 04:41:39;;;;;;;7.78;2.10;;;14.00;99.90;;;;;;5117804;28;20047;-65
2023/10/05 04:44:12;;;;;;;6.97;2.17;;;14.00;99.90;;;;;;5099874;28;20127;-64
2023/10/05 04:46:47;;;;;;;9.20;2.33;;;14.00;99.90;;;;;;5116991;28;20050;-65
2023/10/05 04:49:17;;;;;;;10.70;2.63;;;14.00;99.90;;;;;;5118069;28;20050;-65
2023/10/05 04:51:43;;;;;;;12.77;2.92;;;14.00;99.90;;;;;;5098813;28;20063;-65
2023/10/05 04:54:11;;;;;;;8.02;2.00;;;14.00;99.90;;;;;;5117874;28;20721;-65
2023/10/05 05:07:09;;;;;;;5.17;2.27;;;14.00;99.90;;;;;;5121587;28;20058;-65
2023/10/05 05:09:42;;;;;;;10.75;2.15;;;13.90;99.90;;;;;;5102610;28;20345;-64
2023/10/05 05:12:16;;;;;;;10.55;2.80;;;13.90;99.90;;;;;;5120668;28;20107;-66
2023/10/05 05:14:45;;;;;;;8.32;2.00;;;13.90;99.90;;;;;;5121326;28;20126;-64
2023/10/05 05:17:18;;;;;;;9.15;2.25;;;13.90;99.90;;;;;;5120327;28;20067;-64
2023/10/05 05:19:46;;;;;;;7.95;2.05;;;13.90;99.90;;;;;;5121665;28;20055;-65
2023/10/05 05:22:13;;;;;;;13.85;3.88;;;13.90;99.90;;;;;;5102336;28;20055;-64
2023/10/05 05:24:39;;;;;;;7.18;2.10;;;13.90;99.90;;;;;;5102970;28;20059;-65
2023/10/05 05:27:19;;;;;;;6.45;2.28;;;13.90;99.90;;;;;;5121312;28;20123;-64
2023/10/05 05:29:51;;;;;;;10.35;2.58;;;13.90;99.90;;;;;;5120308;28;20074;-64
2023/10/05 05:32:19;;;;;;;7.50;2.50;;;13.90;99.90;;;;;;5121381;28;20051;-64
2023/10/05 05:34:46;;;;;;;8.00;2.58;;;13.90;99.90;;;;;;5120367;28;20480;-64
2023/10/05 05:37:28;;;;;;;10.93;2.50;;;13.90;99.90;;;;;;5120717;28;20047;-64
2023/10/05 05:39:55;;;;;;;7.32;2.55;;;13.90;99.90;;;;;;5121277;28;20525;-65
2023/10/05 05:42:22;;;;;;;9.23;2.42;;;13.90;99.90;;;;;;5119742;28;20539;-65
2023/10/05 05:44:48;;;;;;;9.60;2.30;;;13.90;99.90;;;;;;5120955;28;20095;-65
2023/10/05 05:47:14;;;;;;;12.52;2.80;;;13.90;99.90;;;;;;5100988;28;20078;-65
2023/10/05 05:49:46;;;;;;;12.73;2.47;;;13.90;99.90;;;;;;5119494;28;20077;-65
2023/10/05 05:52:13;;;;;;;11.38;2.50;;;13.90;99.90;;;;;;5119783;28;20051;-64
2023/10/05 05:54:47;;;;;;;13.65;2.83;;;13.90;99.90;;;;;;5120007;28;20054;-64
2023/10/05 05:57:19;;;;;;;10.38;2.67;;;13.90;99.90;;;;;;5120619;28;20055;-65
2023/10/05 05:59:45;;;;;;;6.80;1.83;;;13.90;99.90;;;;;;5119558;28;20058;-65
2023/10/05 06:02:10;;;;;;;10.38;2.25;;;13.90;99.90;;;;;;5120228;28;20075;-64
2023/10/05 06:04:39;;;;;;;12.73;2.92;;;13.90;99.90;;;;;;5119292;28;20063;-63
2023/10/05 06:07:11;;;;;;;9.90;3.05;;;13.90;99.90;;;;;;5119963;28;20078;-64
2023/10/05 06:09:39;;;;;;;11.35;2.55;;;14.00;99.90;;;;;;5101852;28;20104;-64
2023/10/05 06:12:06;;;;;;;7.72;2.35;;;13.90;99.90;;;;;;5101033;28;20078;-64
2023/10/05 06:14:34;;;;;;;19.10;2.47;;;14.00;99.90;;;;;;5101468;28;20130;-64
2023/10/05 06:17:01;;;;;;;9.63;2.20;;;13.90;99.90;;;;;;5118515;28;20035;-64
2023/10/05 06:19:27;;;;;;;8.27;3.25;;;13.90;99.90;;;;;;5120113;28;20038;-64
2023/10/05 06:21:53;;;;;;;12.30;2.10;;;14.00;99.90;;;;;;5100570;28;20489;-64
2023/10/05 06:24:19;;;;;;;8.27;2.20;;;14.00;99.90;;;;;;5119849;28;20032;-64
2023/10/05 06:26:47;;;;;;;10.73;2.30;;;14.00;99.90;;;;;;5119840;28;20039;-65
2023/10/05 06:29:13;;;;;;;8.68;2.38;;;14.00;99.90;;;;;;5118836;28;20051;-64
2023/10/05 06:31:40;;;;;;;6.35;2.05;;;14.00;99.90;;;;;;5101346;28;20051;-64
2023/10/05 06:34:10;;;;;;;10.00;2.42;;;14.10;99.90;;;;;;5118375;28;20039;-64
2023/10/05 06:36:42;;;;;;;7.43;2.22;;;14.10;99.90;;;;;;5119411;28;20048;-64
2023/10/05 06:39:14;;;;;;;13.73;2.92;;;14.10;99.90;;;;;;5118997;28;20054;-65
2023/10/05 06:41:45;;;;;;;11.60;2.10;;;14.10;99.90;;;;;;5100946;28;20051;-65
2023/10/05 06:44:11;;;;;;;10.10;1.92;;;14.10;99.90;;;;;;5119434;28;20039;-64
2023/10/05 06:46:40;;;;;;;5.65;2.50;;;14.10;99.90;;;;;;5118194;28;20127;-64
2023/10/05 06:49:06;;;;;;;8.15;2.53;;;14.10;99.90;;;;;;5119059;28;20732;-64
2023/10/05 06:51:32;;;;;;;9.15;2.30;;;14.10;99.90;;;;;;5118091;28;20036;-63
2023/10/05 06:53:58;;;;;;;8.20;2.08;;;14.10;99.90;;;;;;5119298;28;20051;-65
2023/10/05 06:56:24;;;;;;;9.13;2.47;;;14.20;99.90;;;;;;5083282;28;20082;-65
2023/10/05 06:58:50;;;;;;;5.18;2.17;;;14.20;99.90;;;;;;5118460;28;20099;-64
2023/10/05 07:01:20;;;;;;;8.63;2.42;;;14.20;99.90;;;;;;5119320;28;20071;-65
2023/10/05 07:03:52;;;;;;;8.88;2.65;;;14.20;99.90;;;;;;5113385;28;20043;-64
2023/10/05 07:06:22;;;;;;;7.22;2.63;;;14.20;99.90;;;;;;5119162;28;20044;-66
2023/10/05 07:08:49;;;;;;;8.48;2.10;;;14.20;99.90;;;;;;5112136;28;20048;-64
2023/10/05 07:11:16;;;;;;;8.85;2.53;;;14.20;99.90;;;;;;5118838;28;20048;-64
2023/10/05 07:13:42;;;;;;;8.98;1.85;;;14.30;99.90;;;;;;5118588;28;20249;-64
2023/10/05 07:16:09;;;;;;;10.50;2.33;;;14.30;99.90;;;;;;5118600;28;20047;-64
2023/10/05 07:18:35;;;;;;;7.53;2.40;;;14.30;99.90;;;;;;5118654;28;20076;-65
2023/10/05 07:21:04;;;;;;;11.68;2.83;;;14.30;99.90;;;;;;5099166;28;20043;-64
2023/10/05 07:23:30;;;;;;;8.70;2.47;;;14.40;99.90;;;;;;5118583;28;20095;-65
2023/10/05 07:25:55;;;;;;;9.40;2.63;;;14.40;99.90;;;;;;5099222;28;20090;-65
2023/10/05 07:28:21;;;;;;;9.77;2.33;;;14.40;99.90;;;;;;5118188;28;20050;-63
2023/10/05 07:30:47;;;;;;;6.68;2.30;;;14.40;99.90;;;;;;5118290;28;20108;-64
2023/10/05 07:33:14;;;;;;;8.40;3.90;;;14.40;99.90;;;;;;5117539;28;20052;-65
2023/10/05 07:35:40;;;;;;;7.22;2.22;;;14.40;99.90;;;;;;5100236;28;20051;-65
2023/10/05 07:38:06;;;;;;;10.05;2.47;;;14.40;99.90;;;;;;5117399;28;20129;-64
2023/10/05 07:40:36;;;;;;;13.43;2.60;;;14.50;99.90;;;;;;5118390;28;20168;-64
2023/10/05 07:43:03;;;;;;;8.60;2.88;;;14.50;99.90;;;;;;5117303;28;20051;-65
2023/10/05 07:45:29;;;;;;;9.63;2.65;;;14.50;99.90;;;;;;5100342;28;20162;-64
2023/10/05 07:47:57;;;;;;;8.52;2.65;;;14.50;99.90;;;;;;5117726;28;20055;-65
2023/10/05 07:50:23;;;;;;;9.10;2.47;;;14.50;99.90;;;;;;5117035;28;20059;-65
2023/10/05 07:52:49;;;;;;;12.05;3.28;;;14.50;99.90;;;;;;5116618;28;20042;-65
2023/10/05 07:55:15;;;;;;;8.52;3.30;;;14.50;99.90;;;;;;5105904;28;20052;-66
2023/10/05 07:57:42;;;;;;;6.10;2.28;;;14.60;99.90;;;;;;5109195;28;20044;-65
2023/10/05 08:00:11;;;;;;;6.68;2.30;;;14.60;99.90;;;;;;5107561;28;20540;-65
2023/10/05 08:02:41;;;;;;;6.90;2.40;;;14.60;99.90;;;;;;5107239;28;20047;-65
2023/10/05 08:05:08;;;;;;;7.38;1.92;;;14.70;99.90;;;;;;5108660;28;20047;-65
2023/10/05 08:07:34;;;;;;;7.38;2.13;;;14.70;99.90;;;;;;5106107;28;20086;-65
2023/10/05 08:10:00;;;;;;;9.35;2.55;;;14.70;99.90;;;;;;5115244;28;20047;-65
2023/10/05 08:12:29;;;;;;;13.23;2.50;;;14.70;99.90;;;;;;5116832;28;20054;-65
2023/10/05 08:14:55;;;;;;;10.40;2.50;;;14.80;99.90;;;;;;5117790;28;20123;-66
2023/10/05 08:17:21;;;;;;;10.32;3.05;;;14.90;99.90;;;;;;5098165;28;20050;-67
2023/10/05 08:19:47;;;;;;;11.07;2.38;;;14.90;99.90;;;;;;5118162;28;20130;-67
2023/10/05 08:22:16;;;;;;;15.07;2.97;;;14.90;99.90;;;;;;5117586;28;20085;-68
2023/10/05 08:24:43;;;;;;;9.55;2.40;;;14.90;99.90;;;;;;5117262;28;20125;-70
2023/10/05 08:27:14;;;;;;;11.38;2.70;;;15.00;99.90;;;;;;5117856;28;20040;-67
2023/10/05 08:29:42;;;;;;;9.18;2.63;;;15.00;99.90;;;;;;5116884;28;20078;-66
2023/10/05 08:32:14;;;;;;;10.10;2.47;;;15.10;99.90;;;;;;5082753;28;20043;-66
2023/10/05 08:34:41;;;;;;;11.68;2.88;;;15.10;99.90;;;;;;5116804;28;20052;-67
2023/10/05 08:37:11;;;;;;;14.75;2.72;;;15.20;99.90;;;;;;5089966;28;20048;-67
2023/10/05 08:39:37;;;;;;;6.65;2.45;;;15.20;99.90;;;;;;5108333;28;20165;-66
2023/10/05 08:42:06;;;;;;;10.55;2.50;;;15.30;99.90;;;;;;5119706;28;20047;-66
2023/10/05 08:44:38;;;;;;;11.93;3.05;;;15.30;99.90;;;;;;5121039;28;20080;-66
2023/10/05 08:47:05;;;;;;;8.27;2.47;;;15.30;99.90;;;;;;5092264;28;20895;-66
2023/10/05 08:49:36;;;;;;;9.95;2.47;;;15.40;99.90;;;;;;5111135;28;20288;-66
2023/10/05 08:52:12;;;;;;;10.70;2.40;;;15.40;99.90;;;;;;5099091;28;20056;-66
2023/10/05 08:54:38;;;;;;;7.45;2.30;;;15.50;99.90;;;;;;5084312;28;20054;-67
2023/10/05 08:57:10;;;;;;;9.60;2.60;;;15.50;99.90;;;;;;5101199;28;20673;-67
2023/10/05 08:59:39;;;;;;;8.57;2.42;;;15.60;99.90;;;;;;5080979;28;20058;-66
2023/10/05 09:02:08;;;;;;;8.10;2.45;;;15.60;99.90;;;;;;5101053;28;20044;-66
2023/10/05 09:04:47;;;;;;;12.18;2.83;;;15.60;99.90;;;;;;5099943;28;20051;-67
2023/10/05 09:07:37;;;;;;;11.95;2.65;;;15.60;99.90;;;;;;5100590;28;20056;-67
2023/10/05 09:10:05;;;;;;;11.07;2.60;;;15.70;99.90;;;;;;5100851;28;20230;-67
2023/10/05 09:12:34;;;;;;;10.38;2.42;;;15.70;99.90;;;;;;5099643;28;20047;-66
2023/10/05 09:17:56;;;;;;;14.77;3.22;;;15.80;99.90;;;;;;5100461;28;20056;-67
2023/10/05 09:20:23;;;;;;;10.50;2.80;;;15.80;99.90;;;;;;5099097;28;20076;-66
2023/10/05 09:22:51;;;;;;;10.45;2.63;;;15.90;99.90;;;;;;5099785;28;20055;-67
2023/10/05 09:25:26;;;;;;;8.30;2.92;;;15.90;99.90;;;;;;5080733;28;20032;-66
2023/10/05 09:27:54;;;;;;;10.63;2.95;;;15.90;99.90;;;;;;5099850;28;20036;-66
2023/10/05 09:30:21;;;;;;;9.75;2.80;;;15.90;99.90;;;;;;5098646;28;20033;-66
2023/10/05 09:32:48;;;;;;;10.73;2.58;;;16.00;99.90;;;;;;5099624;28;20044;-66
2023/10/05 09:35:33;;;;;;;7.35;2.40;;;16.00;99.90;;;;;;5099643;28;20051;-67
2023/10/05 09:37:59;;;;;;;10.18;2.78;;;16.10;99.90;;;;;;5080282;28;20060;-66
2023/10/05 09:40:28;;;;;;;15.77;3.15;;;16.10;99.90;;;;;;5099581;28;20128;-66
2023/10/05 09:43:00;;;;;;;7.85;2.40;;;16.10;99.90;;;;;;5098338;28;20041;-67
2023/10/05 09:45:30;;;;;;;11.87;2.37;;;16.10;99.90;;;;;;5099569;28;20099;-66
2023/10/05 09:48:03;;;;;;;11.93;2.72;;;16.20;99.90;;;;;;5099356;28;20124;-66
2023/10/05 09:50:30;;;;;;;11.85;2.78;;;16.20;99.90;;;;;;5098860;28;20081;-65
2023/10/05 09:52:59;;;;;;;5.05;2.25;;;16.30;99.90;;;;;;5099183;28;20076;-65
2023/10/05 09:55:25;;;;;;;12.43;3.30;;;16.40;99.90;;;;;;5101874;28;20055;-64
2023/10/05 09:57:56;;;;;;;7.10;2.15;;;16.50;99.90;;;;;;5100938;28;20039;-65
2023/10/05 10:00:47;;;;;;;8.90;2.90;;;16.60;99.90;;;;;;5101226;28;20351;-64
2023/10/05 10:03:15;;;;;;;11.43;2.47;;;16.60;99.90;;;;;;5119529;28;20457;-66
2023/10/05 10:05:42;;;;;;;8.27;2.75;;;16.70;99.90;;;;;;5119809;28;20406;-65
2023/10/05 10:08:25;;;;;;;7.75;3.17;;;16.70;99.90;;;;;;5118521;28;20077;-65
2023/10/05 10:11:06;;;;;;;7.80;2.40;;;16.70;99.90;;;;;;5119997;28;20055;-65
2023/10/05 10:13:37;;;;;;;12.70;2.80;;;16.80;99.90;;;;;;5118858;28;20047;-64
2023/10/05 10:16:23;;;;;;;8.13;2.42;;;16.80;99.90;;;;;;5119005;28;20811;-65
2023/10/05 10:19:21;;;;;;;12.43;2.17;;;16.80;99.90;;;;;;5118898;28;20414;-65
2023/10/05 10:21:53;;;;;;;14.70;2.60;;;16.90;99.90;;;;;;5102292;28;20054;-65
2023/10/05 10:24:19;;;;;;;14.15;3.40;;;16.90;99.90;;;;;;5101559;28;20371;-64
2023/10/05 10:27:12;;;;;;;9.93;2.05;;;16.90;99.90;;;;;;5118994;28;20362;-65
2023/10/05 10:29:43;;;;;;;12.38;2.67;;;17.00;99.90;;;;;;5099752;28;20065;-65
2023/10/05 10:32:19;;;;;;;18.10;2.85;;;17.00;99.90;;;;;;5101104;28;20051;-65
2023/10/05 10:34:49;;;;;;;14.82;2.72;;;17.00;99.90;;;;;;5118646;28;20055;-65
2023/10/05 10:38:23;;;;;;;9.27;2.35;;;17.00;99.90;;;;;;5118679;28;20036;-65
2023/10/05 10:45:29;;;;;;;15.90;2.92;;;17.20;99.90;;;;;;5114751;28;20126;-65
2023/10/05 10:47:56;;;;;;;11.45;2.45;;;17.20;99.90;;;;;;5117852;28;20064;-65
2023/10/05 10:50:37;;;;;;;11.48;2.33;;;17.30;99.90;;;;;;5114799;28;20035;-64
2023/10/05 10:53:16;;;;;;;5.43;2.15;;;17.30;99.90;;;;;;5078118;28;20100;-64
2023/10/05 10:55:53;;;;;;;12.18;3.97;;;17.30;99.90;;;;;;5095502;28;20062;-64
2023/10/05 10:58:24;;;;;;;9.15;2.60;;;17.30;99.90;;;;;;5100063;28;20075;-64
2023/10/05 11:00:54;;;;;;;13.88;2.55;;;17.40;99.90;;;;;;5100314;28;20055;-65
2023/10/05 11:03:26;;;;;;;13.90;2.80;;;17.40;99.90;;;;;;5098385;28;20438;-65
2023/10/05 11:05:54;;;;;;;10.93;2.60;;;17.40;99.90;;;;;;5118384;28;20050;-65
2023/10/05 11:08:20;;;;;;;11.48;2.55;;;17.50;99.90;;;;;;5099101;28;20101;-66
2023/10/05 11:13:45;;;;;;;7.18;2.22;;;17.60;99.90;;;;;;5099969;28;20376;-66
2023/10/05 11:16:15;;;;;;;11.05;2.65;;;17.70;99.90;;;;;;5098979;28;20555;-65
2023/10/05 11:18:57;;;;;;;9.98;3.05;;;17.70;99.90;;;;;;5118175;28;20072;-66
2023/10/05 11:21:27;;;;;;;16.20;2.58;;;17.80;99.90;;;;;;5116992;28;20118;-66
2023/10/05 11:23:57;;;;;;;14.07;2.92;;;17.90;99.90;;;;;;5118399;28;20047;-65
2023/10/05 11:26:35;;;;;;;11.75;3.00;;;17.90;99.90;;;;;;5117446;28;20043;-65
2023/10/05 11:29:14;;;;;;;8.93;2.55;;;18.00;99.90;;;;;;5081861;28;20048;-65
2023/10/05 11:31:40;;;;;;;10.27;2.55;;;18.00;99.90;;;;;;5118069;28;20047;-65
2023/10/05 11:34:11;;;;;;;11.75;2.45;;;18.00;99.90;;;;;;5098508;28;20052;-65
2023/10/05 11:36:42;;;;;;;12.43;2.67;;;17.90;99.90;;;;;;5118096;28;20059;-65
2023/10/05 11:39:38;;;;;;;18.93;2.60;;;17.90;99.90;;;;;;5116862;28;20514;-66
2023/10/05 11:42:06;;;;;;;12.80;2.17;;;17.80;99.90;;;;;;5116433;28;20044;-67
2023/10/05 11:44:32;;;;;;;8.77;2.42;;;17.70;99.90;;;;;;5099521;28;20055;-67
2023/10/05 11:46:58;;;;;;;10.52;3.03;;;17.70;99.90;;;;;;5112408;28;20028;-64
2023/10/05 11:49:33;;;;;;;12.23;2.72;;;17.60;99.90;;;;;;5085524;28;20385;-69
2023/10/05 11:52:03;;;;;;;13.70;2.60;;;17.60;99.90;;;;;;5104507;28;20568;-69
2023/10/05 11:54:31;;;;;;;14.15;2.78;;;17.60;99.90;;;;;;5105139;28;20040;-70
2023/10/05 11:57:00;;;;;;;13.82;3.30;;;17.70;99.90;;;;;;5087817;28;20058;-67
2023/10/05 11:59:37;;;;;;;15.82;2.78;;;17.70;99.90;;;;;;5097444;28;20044;-65
2023/10/05 12:02:08;;;;;;;8.27;2.58;;;17.70;99.90;;;;;;5099043;28;20043;-68
2023/10/05 12:04:39;;;;;;;8.48;2.13;;;17.80;99.90;;;;;;5114198;28;20051;-68
2023/10/05 12:07:05;;;;;;;6.13;2.03;;;17.50;99.90;;;;;;5107749;28;20047;-67
2023/10/05 12:09:32;;;;;;;8.20;2.10;;;17.60;99.90;;;;;;5116720;28;20099;-67
2023/10/05 12:12:03;;;;;;;6.32;1.77;;;17.40;99.90;;;;;;5098566;28;20119;-66
2023/10/05 12:14:29;;;;;;;20.58;2.60;;;17.50;99.90;;;;;;5099966;28;20051;-66
2023/10/05 12:16:56;;;;;;;9.95;2.50;;;17.40;99.90;;;;;;5120517;28;20046;-66
2023/10/05 12:19:29;;;;;;;9.35;2.53;;;17.40;99.90;;;;;;5121719;28;20074;-66
2023/10/05 12:22:01;;;;;;;9.15;2.63;;;17.40;99.90;;;;;;5121077;28;20100;-68
2023/10/05 12:24:27;;;;;;;;;;;17.50;99.90;;;;;;5121195;28;20394;-66
2023/10/05 12:26:59;;;;;;;7.10;2.30;;;17.50;99.90;;;;;;5121570;28;19987;-66
2023/10/05 12:29:27;;;;;;;8.77;1.98;;;17.60;99.90;;;;;;5103086;28;20399;-66
2023/10/05 12:31:53;;;;;;;10.68;2.83;;;17.60;99.90;;;;;;5102848;28;20051;-67
2023/10/05 12:34:23;;;;;;;6.10;2.20;;;17.70;99.90;;;;;;5120248;28;20040;-66
2023/10/05 12:36:49;;;;;;;11.50;2.35;;;17.70;99.90;;;;;;5121455;28;20124;-65
2023/10/05 12:39:26;;;;;;;8.88;2.15;;;17.70;99.90;;;;;;5120590;28;20108;-65
2023/10/05 12:41:54;;;;;;;13.85;2.75;;;17.70;99.90;;;;;;5120197;28;20059;-65
2023/10/05 12:44:20;;;;;;;11.02;1.98;;;17.70;99.90;;;;;;5120802;28;20106;-66
2023/10/05 12:46:47;;;;;;;10.25;2.70;;;17.60;99.90;;;;;;5101408;28;20052;-65
2023/10/05 12:49:14;;;;;;;8.45;2.47;;;17.60;99.90;;;;;;5120923;28;20173;-66
2023/10/05 12:51:45;;;;;;;8.27;2.70;;;17.60;99.90;;;;;;5119708;28;20185;-66
2023/10/05 12:54:28;;;;;;;12.48;2.40;;;17.60;99.90;;;;;;5120907;28;20071;-65
2023/10/05 12:56:55;;;;;;;9.93;2.20;;;17.70;99.90;;;;;;5120711;28;20084;-65
2023/10/05 12:59:21;;;;;;;12.50;2.10;;;17.60;99.90;;;;;;5119640;28;20039;-65
2023/10/05 13:01:47;;;;;;;12.95;2.40;;;17.60;99.90;;;;;;5120825;28;20050;-65
2023/10/05 13:04:14;;;;;;;9.85;2.30;;;17.60;99.90;;;;;;5101058;28;20047;-66
2023/10/05 13:06:41;;;;;;;5.47;2.10;;;17.60;99.90;;;;;;5120350;28;20047;-66
2023/10/05 13:09:18;;;;;;;10.77;2.65;;;17.70;99.90;;;;;;5101517;28;20494;-67
2023/10/05 13:11:45;;;;;;;12.82;2.58;;;17.70;99.90;;;;;;5119662;28;20071;-67
2023/10/05 13:14:14;;;;;;;11.93;2.20;;;17.80;99.90;;;;;;5120309;28;20039;-67
2023/10/05 13:16:40;;;;;;;11.98;2.58;;;17.80;99.90;;;;;;5118983;28;20046;-67
2023/10/05 13:19:09;;;;;;;9.63;2.78;;;17.90;99.90;;;;;;5120179;28;20506;-70
2023/10/05 13:21:44;;;;;;;8.27;2.53;;;17.90;99.90;;;;;;5118894;28;20054;-72
2023/10/05 13:24:15;;;;;;;15.02;2.47;;;18.00;99.90;;;;;;5119952;28;20047;-68
2023/10/05 13:26:44;;;;;;;7.40;2.25;;;18.00;99.90;;;;;;5119080;28;20043;-63
2023/10/05 13:29:11;;;;;;;11.40;2.80;;;18.00;99.90;;;;;;5119005;28;20054;-64
2023/10/05 13:31:41;;;;;;;13.57;2.63;;;18.00;99.90;;;;;;5112602;28;20051;-66
2023/10/05 13:34:29;;;;;;;11.93;2.90;;;18.00;99.90;;;;;;5113622;28;20043;-64
2023/10/05 13:36:55;;;;;;;8.43;2.53;;;18.00;99.90;;;;;;5111497;28;20047;-65
2023/10/05 13:39:21;;;;;;;7.57;2.05;;;18.00;99.90;;;;;;5100727;28;20043;-63
2023/10/05 13:42:09;;;;;;;9.35;2.63;;;18.00;99.90;;;;;;5118596;28;20643;-65